Latest Coastal Weather Observations for Larapuna (Eddystone Point)

IDT60701

Issued at 4:32 am EDT Tuesday 21 January 2020 (issued every 10 minutes, with the page automatically refreshed every 10 minutes)

About coastal observations | Map of coastal stations | Coastal observations for TAS | Marine services | Other Formats
Station Details ID: 092045 Name: LARAPUNA (EDDYSTONE POINT) Lat: -40.99 Lon: 148.35 Height: 19.7 m
Data from the previous 72 hours. | See also: Recent months at Larapuna (Eddystone Point)
Date/Time
EDT
Wind Sea
Height
m
Swell Vis
km
Cloud Weather Temp
°C
Press
hPa
Rain since
9am
mm
Dir  Spd
kts
Gust
kts
Height
m
Period
s
Dir
21/04:30am SSE 23 29 - - - - - - - 15.3 1002.9 2.6
21/04:00am S 26 31 - - - - - - - 15.4 1002.9 2.6
21/03:30am S 26 31 - - - - - - - 15.1 1003.0 2.6
21/03:00am SSE 25 29 - - - - - - - 15.2 1003.5 2.6
21/02:30am S 25 30 - - - - - - - 15.2 1003.7 2.6
21/02:00am S 25 28 - - - - - - - 15.2 1003.9 2.6
21/01:30am S 27 32 - - - - - - - 15.2 1003.6 2.6
21/01:00am S 30 37 - - - - - - - 15.2 1003.6 2.6
21/12:30am S 31 35 - - - - - - - 15.4 1004.1 2.6
21/12:00am S 29 35 - - - - - - - 15.5 1004.4 2.6
 
Date/Time
EDT
Wind Sea
Height
m
Swell Vis
km
Cloud Weather Temp
°C
Press
hPa
Rain since
9am
mm
Dir  Spd
kts
Gust
kts
Height
m
Period
s
Dir
20/11:30pm S 33 38 - - - - - - - 15.4 1004.2 2.6
20/11:00pm S 32 37 - - - - - - - 15.4 1004.2 2.6
20/10:30pm S 31 37 - - - - - - - 15.3 1004.2 2.6
20/10:00pm S 30 37 - - - - - - - 15.4 1004.0 2.6
20/09:30pm S 32 40 - - - - - - - 15.6 1003.5 2.6
20/09:00pm S 32 39 - - - - - - - 15.6 1003.6 2.6
20/08:30pm SSE 32 39 - - - - - - - 15.5 1003.1 2.6
20/08:00pm S 32 38 - - - - - - - 15.7 1003.1 2.6
20/07:30pm S 29 35 - - - - - - - 16.0 1003.4 2.6
20/07:00pm S 31 36 - - - - - - - 15.7 1002.9 2.6
20/06:30pm S 31 35 - - - - - - - 15.8 1002.9 2.6
20/06:00pm S 31 38 - - - - - - - 16.0 1002.7 2.6
20/05:30pm S 32 38 - - - - - - - 16.3 1002.6 2.6
20/05:00pm S 30 36 - - - - - - - 16.4 1002.8 2.6
20/04:30pm S 30 37 - - - - - - - 16.3 1003.4 2.6
20/04:00pm S 30 38 - - - - - - - 16.4 1003.6 2.6
20/03:30pm S 31 36 - - - - - - - 16.5 1003.7 2.6
20/03:00pm S 32 38 - - - - - - - 15.9 1003.8 2.6
20/02:30pm S 34 41 - - - - - - - 15.9 1004.0 2.6
20/02:00pm S 31 37 - - - - - - - 15.3 1004.5 2.6
20/01:30pm S 31 38 - - - - - - - 15.0 1004.8 2.6
20/01:00pm S 33 39 - - - - - - - 14.9 1004.9 2.0
20/12:30pm S 32 39 - - - - - - - 14.8 1005.1 1.4
20/12:00pm S 32 37 - - - - - - Recent precip. 14.9 1005.4 1.0
20/11:30am S 33 38 - - - - - - - 15.2 1005.6 0.6
20/11:00am S 31 37 - - - - - - - 15.6 1006.4 0.0
20/10:30am S 32 37 - - - - - - - 15.6 1006.7 0.0
20/10:00am S 30 36 - - - - - - - 15.7 1007.0 0.0
20/09:30am S 31 37 - - - - - - - 15.4 1007.1 0.0
20/09:00am S 31 37 - - - - - - - 15.3 1007.4 0.0
20/08:30am S 31 37 - - - - - - - 15.2 1007.4 0.0
20/08:00am S 29 35 - - - - - - - 15.4 1007.4 0.0
20/07:30am S 30 36 - - - - - - - 15.7 1007.5 0.0
20/07:00am S 29 33 - - - - - - - 15.6 1007.5 0.0
20/06:30am S 29 34 - - - - - - - 15.5 1007.6 0.0
20/06:00am S 27 32 - - - - - - - 15.7 1007.6 0.0
20/05:30am S 28 33 - - - - - - - 15.4 1007.5 0.0
20/05:00am S 27 32 - - - - - - - 15.8 1007.9 0.0
20/04:30am S 25 31 - - - - - - - 15.9 1008.2 0.0
20/04:00am S 24 29 - - - - - - - 16.0 1008.4 0.0
20/03:30am S 25 29 - - - - - - - 16.4 1008.8 0.0
20/03:00am S 24 29 - - - - - - - 16.4 1008.9 0.0
20/02:30am SSE 22 26 - - - - - - - 16.4 1009.3 0.0
20/02:00am SSE 21 26 - - - - - - - 16.4 1009.7 0.0
20/01:30am S 22 26 - - - - - - - 16.6 1010.0 0.0
20/01:00am SSE 21 26 - - - - - - - 16.7 1010.2 0.0
20/12:30am SSE 20 24 - - - - - - - 16.7 1010.5 0.0
20/12:00am SSE 19 24 - - - - - - - 16.7 1010.6 0.0
 
Date/Time
EDT
Wind Sea
Height
m
Swell Vis
km
Cloud Weather Temp
°C
Press
hPa
Rain since
9am
mm
Dir  Spd
kts
Gust
kts
Height
m
Period
s
Dir
19/11:30pm SSE 18 22 - - - - - - - 16.9 1011.1 0.0
19/11:00pm SSE 17 20 - - - - - - - 17.0 1011.9 0.0
19/10:30pm SSE 17 20 - - - - - - - 17.0 1011.9 0.0
19/10:00pm SSE 19 23 - - - - - - - 17.0 1011.9 0.0
19/09:30pm SSE 18 22 - - - - - - - 17.0 1011.7 0.0
19/09:00pm SSE 17 21 - - - - - - - 16.9 1011.4 0.0
19/08:30pm SE 17 20 - - - - - - - 16.9 1010.8 0.0
19/08:00pm SSE 19 23 - - - - - - - 16.9 1010.4 0.0
19/07:30pm S 20 23 - - - - - - - 17.2 1010.2 0.0
19/07:00pm S 21 25 - - - - - - - 17.5 1009.8 0.0
19/06:30pm SSE 21 25 - - - - - - - 18.1 1009.6 0.0
19/06:00pm SSE 19 22 - - - - - - - 18.4 1009.7 0.0
19/05:30pm SSE 18 21 - - - - - - - 18.9 1010.0 0.0
19/05:00pm SSE 17 21 - - - - - - - 19.2 1010.1 0.0
19/04:30pm SSE 17 20 - - - - - - - 19.6 1010.3 0.0
19/04:00pm SSE 17 21 - - - - - - - 20.4 1010.6 0.0
19/03:30pm SSE 16 19 - - - - - - - 20.5 1010.8 0.0
19/03:00pm SSE 16 18 - - - - - - - 20.6 1011.3 0.0
19/02:30pm SSE 16 19 - - - - - - - 20.4 1011.3 0.0
19/02:00pm SSE 15 18 - - - - - - - 19.8 1011.6 0.0
19/01:30pm SSE 15 18 - - - - - - - 20.5 1011.7 0.0
19/01:00pm SSE 16 19 - - - - - - - 19.9 1012.0 0.0
19/12:30pm SSE 17 20 - - - - - - - 19.1 1012.1 0.0
19/12:00pm SSE 15 18 - - - - - - - 20.8 1012.5 0.0
19/11:30am SSE 16 19 - - - - - - - 20.7 1012.5 0.0
19/11:00am SSE 16 19 - - - - - - - 19.7 1012.5 0.0
19/10:30am SSE 16 18 - - - - - - - 19.4 1012.6 0.0
19/10:00am SSE 15 17 - - - - - - - 19.6 1012.8 0.0
19/09:30am SSE 15 19 - - - - - - - 17.6 1012.6 0.0
19/09:00am SE 14 16 - - - - - - - 18.1 1012.5 0.0
19/08:30am SE 13 17 - - - - - - - 16.6 1012.5 0.0
19/08:00am SE 13 18 - - - - - - - 16.4 1012.4 0.0
19/07:30am SE 13 18 - - - - - - - 16.2 1012.4 0.0
19/07:00am SE 14 19 - - - - - - - 16.0 1012.2 0.0
19/06:30am SE 13 17 - - - - - - - 15.5 1012.1 0.0
19/06:00am SSE 15 19 - - - - - - - 15.6 1011.9 0.0
19/05:30am SE 13 16 - - - - - - - 15.5 1012.0 0.0
19/05:00am SE 14 17 - - - - - - - 15.6 1011.7 0.0
19/04:30am SE 12 16 - - - - - - - 15.6 1012.0 0.0
19/04:00am SE 12 14 - - - - - - - 15.3 1012.1 0.0
19/03:30am SE 12 15 - - - - - - - 15.3 1012.1 0.0
19/03:00am SE 12 15 - - - - - - - 15.3 1012.4 0.0
19/02:30am SE 11 14 - - - - - - - 15.3 1013.0 0.0
19/02:00am SE 11 14 - - - - - - - 15.4 1013.3 0.0
19/01:30am SE 12 15 - - - - - - - 15.3 1013.6 0.0
19/01:00am SE 13 16 - - - - - - - 15.4 1013.6 0.0
19/12:30am SE 11 13 - - - - - - - 15.4 1014.3 0.0
19/12:00am SE 12 15 - - - - - - - 15.3 1014.2 0.0
 
Date/Time
EDT
Wind Sea
Height
m
Swell Vis
km
Cloud Weather Temp
°C
Press
hPa
Rain since
9am
mm
Dir  Spd
kts
Gust
kts
Height
m
Period
s
Dir
18/11:30pm SE 11 14 - - - - - - - 15.5 1014.3 0.0
18/11:00pm ESE 13 16 - - - - - - - 15.8 1014.5 0.0
18/10:30pm ESE 11 14 - - - - - - - 15.4 1014.8 0.0
18/10:00pm ESE 13 16 - - - - - - - 15.6 1014.7 0.0
18/09:30pm ESE 14 17 - - - - - - - 15.5 1014.5 0.0
18/09:00pm ESE 12 14 - - - - - - - 15.7 1014.8 0.0
18/08:30pm ESE 13 16 - - - - - - - 15.7 1014.6 0.0
18/08:00pm ESE 14 16 - - - - - - - 15.7 1014.4 0.0
18/07:30pm ESE 14 17 - - - - - - - 15.6 1014.2 0.0
18/07:00pm SE 13 18 - - - - - - - 16.0 1014.4 0.0
18/06:30pm SE 12 16 - - - - - - - 16.8 1014.6 0.0
18/06:00pm SE 11 14 - - - - - - - 16.7 1014.7 0.0
18/05:30pm SE 12 15 - - - - - - - 16.9 1014.8 0.0
18/05:00pm SE 12 16 - - - - - - - 17.9 1015.0 0.0
18/04:30pm SE 11 16 - - - - - - - 19.0 1015.2 0.0
18/04:00pm SE 11 15 - - - - - - - 18.3 1015.4 0.0
18/03:30pm ESE 14 18 - - - - - - - 19.3 1015.5 0.0
18/03:00pm ESE 15 18 - - - - - - - 19.1 1015.7 0.0
18/02:30pm ESE 13 17 - - - - - - - 19.4 1016.1 0.0
18/02:00pm ESE 15 19 - - - - - - - 19.4 1016.3 0.0
18/01:30pm SE 15 20 - - - - - - - 19.7 1016.4 0.0
18/01:00pm ESE 15 18 - - - - - - - 19.5 1016.8 0.0
18/12:30pm ESE 15 19 - - - - - - - 18.1 1017.1 0.0
18/12:00pm SE 14 19 - - - - - - - 17.3 1017.4 0.0
18/11:30am SE 14 20 - - - - - - - 18.6 1017.6 0.0
18/11:00am SE 15 19 - - - - - - - 19.4 1017.6 0.0
18/10:30am SE 15 19 - - - - - - - 18.2 1017.8 0.0
18/10:00am SE 12 15 - - - - - - - 18.1 1018.0 0.0
18/09:30am ESE 13 16 - - - - - - - 17.5 1018.4 0.0
18/09:00am ESE 15 19 - - - - - - - 16.2 1018.2 0.0
18/08:30am ESE 13 18 - - - - - - - 16.1 1018.1 0.0
18/08:00am SE 13 18 - - - - - - - 15.8 1017.9 0.0
18/07:30am SE 12 17 - - - - - - - 14.6 1017.8 0.0
18/07:00am ESE 13 19 - - - - - - - 14.2 1017.5 0.0
18/06:30am E 13 19 - - - - - - - 14.3 1017.3 0.0
18/06:00am ESE 12 17 - - - - - - - 14.4 1017.0 0.0
18/05:30am ESE 13 18 - - - - - - - 14.4 1016.9 0.0
18/05:00am E 13 19 - - - - - - - 14.6 1016.8 0.0

Other formats

Comma delimited format used in spreadsheet applications
http://www.bom.gov.au/fwo/IDT60701/IDT60701.94983.axf

JavaScript Object Notation format (JSON) in row-major order
http://www.bom.gov.au/fwo/IDT60701/IDT60701.94983.json

Data quality

Most of these data are generated automatically and are frequently updated. Quality checks on data are not normally performed. It is possible for incorrect values to appear. Refer to information at About Latest Weather Observations and please check the disclaimer before using these data.